createdAt,value
2018-12-11T00:01:08.718Z,8.83
2018-12-11T00:03:37.775Z,9.20
2018-12-11T00:06:23.671Z,5.23
2018-12-11T00:08:52.726Z,5.67
2018-12-11T00:11:21.797Z,6.63
2018-12-11T00:13:50.869Z,6.17
2018-12-11T00:16:24.146Z,5.57
2018-12-11T00:18:53.250Z,8.83
2018-12-11T00:21:22.291Z,9.33
2018-12-11T00:23:51.350Z,7.50
2018-12-11T00:26:21.392Z,7.63
2018-12-11T00:28:50.420Z,4.67
2018-12-11T00:31:19.470Z,7.13
2018-12-11T00:33:48.556Z,6.17
2018-12-11T00:36:22.341Z,4.07
2018-12-11T00:38:51.610Z,5.63
2018-12-11T00:41:20.648Z,2.97
2018-12-11T00:43:49.696Z,4.90
2018-12-11T00:46:18.792Z,4.70
2018-12-11T00:48:47.866Z,5.13
2018-12-11T00:51:16.911Z,4.07
2018-12-11T00:53:45.999Z,5.23
2018-12-11T00:56:15.046Z,4.33
2018-12-11T00:58:44.115Z,4.57
2018-12-11T01:01:13.329Z,4.30
2018-12-11T01:03:42.368Z,3.97
2018-12-11T01:06:14.791Z,3.13
2018-12-11T01:08:43.865Z,3.73
2018-12-11T01:11:12.912Z,3.53
2018-12-11T01:13:41.995Z,4.57
2018-12-11T01:16:11.056Z,4.67
2018-12-11T01:18:40.097Z,4.73
2018-12-11T01:21:09.220Z,4.03
2018-12-11T01:23:38.272Z,4.87
2018-12-11T01:26:07.324Z,4.10
2018-12-11T01:28:36.398Z,3.90
2018-12-11T01:31:05.467Z,3.27
2018-12-11T01:33:34.516Z,3.27
2018-12-11T01:36:03.587Z,3.00
2018-12-11T01:38:32.643Z,3.20
2018-12-11T01:41:01.699Z,2.90
2018-12-11T01:43:30.957Z,3.73
2018-12-11T01:45:59.998Z,4.63
2018-12-11T01:48:29.056Z,7.63
2018-12-11T01:50:58.174Z,4.47
2018-12-11T01:53:27.226Z,7.70
2018-12-11T01:55:57.323Z,6.53
2018-12-11T01:58:26.398Z,6.27
2018-12-11T02:00:55.442Z,6.03
2018-12-11T02:03:24.491Z,6.10
2018-12-11T02:05:53.591Z,5.47
2018-12-11T02:08:22.651Z,5.77
2018-12-11T02:10:51.699Z,4.40
2018-12-11T02:13:20.809Z,5.10
2018-12-11T02:15:49.861Z,4.67
2018-12-11T02:18:18.907Z,4.67
2018-12-11T02:20:47.987Z,4.33
2018-12-11T02:23:17.041Z,5.67
2018-12-11T02:25:46.093Z,3.83
2018-12-11T02:28:15.189Z,4.73
2018-12-11T02:30:44.247Z,4.77
2018-12-11T02:33:13.305Z,6.93
2018-12-11T02:35:42.377Z,7.83
2018-12-11T02:38:11.434Z,12.27
2018-12-11T02:40:40.475Z,12.93
2018-12-11T02:43:09.555Z,13.57
2018-12-11T02:45:38.624Z,13.27
2018-12-11T02:48:07.694Z,11.03
2018-12-11T02:50:36.792Z,8.97
2018-12-11T02:53:05.836Z,6.40
2018-12-11T02:55:34.890Z,5.60
2018-12-11T02:58:04.060Z,5.60
2018-12-11T03:00:33.085Z,6.43
2018-12-11T03:03:02.126Z,4.97
2018-12-11T03:05:31.204Z,6.97
2018-12-11T03:08:00.244Z,6.03
2018-12-11T03:10:29.285Z,5.07
2018-12-11T03:12:58.380Z,5.40
2018-12-11T03:15:27.429Z,7.10
2018-12-11T03:17:56.483Z,8.20
2018-12-11T03:20:25.560Z,8.10
2018-12-11T03:22:54.626Z,11.30
2018-12-11T03:25:23.661Z,8.40
2018-12-11T03:27:52.753Z,10.03
2018-12-11T03:30:21.811Z,9.63
2018-12-11T03:32:50.870Z,9.53
2018-12-11T03:35:19.951Z,9.33
2018-12-11T03:37:48.999Z,9.07
2018-12-11T03:40:18.050Z,10.53
2018-12-11T03:42:47.139Z,9.13
2018-12-11T03:45:16.187Z,7.07
2018-12-11T03:47:45.228Z,6.70
2018-12-11T03:50:14.317Z,6.43
2018-12-11T03:52:43.375Z,9.17
2018-12-11T03:55:12.411Z,7.40
2018-12-11T03:57:41.685Z,8.10
2018-12-11T04:00:10.729Z,8.50
2018-12-11T04:02:39.794Z,7.67
2018-12-11T04:05:08.870Z,7.60
2018-12-11T04:07:37.918Z,7.70
2018-12-11T04:10:06.981Z,8.77
2018-12-11T04:12:36.055Z,8.80
2018-12-11T04:15:05.121Z,8.20
2018-12-11T04:17:34.169Z,9.33
2018-12-11T04:20:03.270Z,12.67
2018-12-11T04:22:32.342Z,16.97
2018-12-11T04:25:01.377Z,12.10
2018-12-11T04:27:30.478Z,12.30
2018-12-11T04:29:59.526Z,11.17
2018-12-11T04:32:28.586Z,9.27
2018-12-11T04:34:57.671Z,7.60
2018-12-11T04:37:26.707Z,7.60
2018-12-11T04:39:55.761Z,9.23
2018-12-11T04:42:24.893Z,10.40
2018-12-11T04:44:53.921Z,5.80
2018-12-11T04:47:22.969Z,7.43
2018-12-11T04:49:52.040Z,8.20
2018-12-11T04:52:21.100Z,6.50
2018-12-11T04:54:50.136Z,8.00
2018-12-11T04:57:19.224Z,6.77
2018-12-11T04:59:48.277Z,7.43
2018-12-11T05:02:17.336Z,7.40
2018-12-11T05:04:46.422Z,6.90
2018-12-11T05:07:15.465Z,6.43
2018-12-11T05:09:44.519Z,5.70
2018-12-11T05:12:13.618Z,8.47
2018-12-11T05:14:42.681Z,24.60
2018-12-11T05:17:11.747Z,24.90
2018-12-11T05:19:40.847Z,19.30
2018-12-11T05:22:09.901Z,24.37
2018-12-11T05:24:38.964Z,19.17
2018-12-11T05:27:08.076Z,12.00
2018-12-11T05:29:37.724Z,13.97
2018-12-11T05:32:06.784Z,13.80
2018-12-11T05:34:35.884Z,10.30
2018-12-11T05:37:04.947Z,10.43
2018-12-11T05:39:34.015Z,11.07
2018-12-11T05:42:03.095Z,10.20
2018-12-11T05:44:32.155Z,10.13
2018-12-11T05:47:01.225Z,12.93
2018-12-11T05:49:30.398Z,15.73
2018-12-11T05:51:59.440Z,14.33
2018-12-11T05:54:28.500Z,12.37
2018-12-11T05:56:57.592Z,13.83
2018-12-11T05:59:26.672Z,16.63
2018-12-11T06:01:55.748Z,21.30
2018-12-11T06:04:24.844Z,30.03
2018-12-11T06:06:53.909Z,22.07
2018-12-11T06:09:22.975Z,21.93
2018-12-11T06:11:52.107Z,19.07
2018-12-11T06:14:21.167Z,20.17
2018-12-11T06:16:50.235Z,17.67
2018-12-11T06:19:19.330Z,18.57
2018-12-11T06:21:48.390Z,17.47
2018-12-11T06:24:17.466Z,21.60
2018-12-11T06:26:46.559Z,21.93
2018-12-11T06:29:15.605Z,22.47
2018-12-11T06:31:44.675Z,37.20
2018-12-11T06:34:13.787Z,17.50
2018-12-11T06:36:42.851Z,70.90
2018-12-11T06:39:11.921Z,65.50
2018-12-11T06:41:41.046Z,41.10
2018-12-11T06:44:10.090Z,20.10
2018-12-11T06:46:39.158Z,17.83
2018-12-11T06:49:08.257Z,17.40
2018-12-11T06:51:37.300Z,23.47
2018-12-11T06:54:06.363Z,38.13
2018-12-11T06:56:35.477Z,53.47
2018-12-11T06:59:04.537Z,41.67
2018-12-11T07:01:33.597Z,32.77
2018-12-11T07:04:02.694Z,31.27
2018-12-11T07:06:31.744Z,30.00
2018-12-11T07:09:00.813Z,27.37
2018-12-11T07:11:29.886Z,11.20
2018-12-11T07:13:58.944Z,10.57
2018-12-11T07:16:27.997Z,14.70
2018-12-11T07:18:57.123Z,14.47
2018-12-11T07:21:26.168Z,14.77
2018-12-11T07:23:55.233Z,19.73
2018-12-11T07:26:24.322Z,22.00
2018-12-11T07:28:53.382Z,17.47
2018-12-11T07:31:22.445Z,10.97
2018-12-11T07:33:51.519Z,13.83
2018-12-11T07:36:20.565Z,11.30
2018-12-11T07:38:49.624Z,15.03
2018-12-11T07:41:18.762Z,22.53
2018-12-11T07:43:47.833Z,17.30
2018-12-11T07:46:16.934Z,16.37
2018-12-11T07:48:46.022Z,21.90
2018-12-11T07:51:15.080Z,27.57
2018-12-11T07:53:44.127Z,36.07
2018-12-11T07:56:13.228Z,47.00
2018-12-11T07:58:42.295Z,26.43
2018-12-11T08:01:11.349Z,17.03
2018-12-11T08:03:40.449Z,16.50
2018-12-11T08:06:10.527Z,20.90
2018-12-11T08:08:39.595Z,29.77
2018-12-11T08:11:08.679Z,34.33
2018-12-11T08:13:37.760Z,31.13
2018-12-11T08:16:06.812Z,34.00
2018-12-11T08:18:35.896Z,37.10
2018-12-11T08:21:04.954Z,33.07
2018-12-11T08:23:34.013Z,48.00
2018-12-11T08:26:03.118Z,36.70
2018-12-11T08:28:32.159Z,28.30
2018-12-11T08:31:01.695Z,29.77
2018-12-11T08:33:30.787Z,29.63
2018-12-11T08:35:59.853Z,35.33
2018-12-11T08:38:28.920Z,38.73
2018-12-11T08:40:57.999Z,52.90
2018-12-11T08:43:27.702Z,47.03
2018-12-11T08:45:56.765Z,58.20
2018-12-11T08:48:25.875Z,61.20
2018-12-11T08:50:54.947Z,102.23
2018-12-11T08:53:24.012Z,77.80
2018-12-11T08:55:53.092Z,51.57
2018-12-11T08:58:22.142Z,42.53
2018-12-11T09:00:51.204Z,49.77
2018-12-11T09:03:20.297Z,41.50
2018-12-11T09:08:52.805Z,47.13
2018-12-11T09:11:21.853Z,51.63
2018-12-11T09:13:50.903Z,38.87
2018-12-11T09:16:26.582Z,35.33
2018-12-11T09:18:55.634Z,32.50
2018-12-11T09:21:24.683Z,34.30
2018-12-11T09:23:54.363Z,57.93
2018-12-11T09:26:22.843Z,37.73
2018-12-11T09:28:51.906Z,39.93
2018-12-11T09:31:21.000Z,54.60
2018-12-11T09:33:50.044Z,77.17
2018-12-11T09:36:42.441Z,64.70
2018-12-11T09:39:11.499Z,61.23
2018-12-11T09:41:40.559Z,56.47
2018-12-11T09:44:09.669Z,55.67
2018-12-11T09:46:38.722Z,46.80
2018-12-11T09:49:07.796Z,47.97
2018-12-11T09:51:36.880Z,49.17
2018-12-11T09:54:05.928Z,49.60
2018-12-11T09:56:54.391Z,50.20
2018-12-11T09:59:23.724Z,47.70
2018-12-11T10:01:52.505Z,47.10
2018-12-11T10:04:21.619Z,54.27
2018-12-11T10:06:50.676Z,54.40
2018-12-11T10:09:19.736Z,49.97
2018-12-11T10:11:48.821Z,47.80
2018-12-11T10:14:17.867Z,73.20
2018-12-11T10:16:46.933Z,53.10
2018-12-11T10:19:16.008Z,53.67
2018-12-11T10:21:45.068Z,54.63
2018-12-11T10:24:14.125Z,47.67
2018-12-11T10:26:43.238Z,50.70
2018-12-11T10:29:12.299Z,49.57
2018-12-11T10:31:41.351Z,58.03
2018-12-11T10:34:10.441Z,90.63
2018-12-11T10:36:39.508Z,108.57
2018-12-11T10:39:08.571Z,97.83
2018-12-11T10:41:37.664Z,91.27
2018-12-11T10:44:06.723Z,72.13
2018-12-11T10:46:35.777Z,63.17
2018-12-11T10:49:04.872Z,80.93
2018-12-11T10:51:33.945Z,67.77
2018-12-11T10:54:02.999Z,70.47
2018-12-11T10:56:42.297Z,78.10
2018-12-11T10:59:11.365Z,79.00
2018-12-11T11:01:40.416Z,61.20
2018-12-11T11:04:09.566Z,51.53
2018-12-11T11:06:38.684Z,46.00
2018-12-11T11:09:07.734Z,52.03
2018-12-11T11:11:36.852Z,54.33
2018-12-11T11:14:05.883Z,56.37
2018-12-11T11:16:58.869Z,52.87
2018-12-11T11:19:27.925Z,52.17
2018-12-11T11:21:57.165Z,45.57
2018-12-11T11:24:26.218Z,44.60
2018-12-11T11:26:55.264Z,47.83
2018-12-11T11:29:24.348Z,38.67
2018-12-11T11:31:53.402Z,31.07
2018-12-11T11:34:22.464Z,15.23
2018-12-11T11:36:51.566Z,23.00
2018-12-11T11:39:20.645Z,273.47
2018-12-11T11:41:49.718Z,169.40
2018-12-11T11:44:18.822Z,163.70
2018-12-11T11:46:47.881Z,75.30
2018-12-11T11:49:16.944Z,20.83
2018-12-11T11:51:46.323Z,16.97
2018-12-11T11:54:15.377Z,32.80
2018-12-11T11:56:44.438Z,19.60
2018-12-11T11:59:13.728Z,27.13
2018-12-11T12:01:42.781Z,15.37
2018-12-11T12:04:11.844Z,18.27
2018-12-11T12:06:40.962Z,48.60
2018-12-11T12:09:10.023Z,26.63
2018-12-11T12:11:39.078Z,25.07
2018-12-11T12:14:08.164Z,36.47
2018-12-11T12:16:37.231Z,28.40
2018-12-11T12:19:06.302Z,37.90
2018-12-11T12:21:35.404Z,25.23
2018-12-11T12:24:04.431Z,38.40
2018-12-11T12:26:33.492Z,40.97
2018-12-11T12:29:02.619Z,32.93
2018-12-11T12:31:31.675Z,12.97
2018-12-11T12:34:00.713Z,7.53
2018-12-11T12:36:29.794Z,19.33
2018-12-11T12:38:58.849Z,13.13
2018-12-11T12:41:27.898Z,8.07
2018-12-11T12:43:57.063Z,11.87
2018-12-11T12:46:26.110Z,7.40
2018-12-11T12:48:55.185Z,11.47
2018-12-11T12:51:24.273Z,21.37
2018-12-11T12:53:53.336Z,38.10
2018-12-11T12:56:22.384Z,42.97
2018-12-11T12:58:51.467Z,36.23
2018-12-11T13:01:20.523Z,34.97
2018-12-11T13:03:49.573Z,33.83
2018-12-11T13:06:19.625Z,31.57
2018-12-11T13:08:48.695Z,200.30
2018-12-11T13:11:17.740Z,88.53
2018-12-11T13:13:46.842Z,68.13
2018-12-11T13:16:15.895Z,116.33
2018-12-11T13:18:45.011Z,102.07
2018-12-11T13:21:14.030Z,38.90
2018-12-11T13:23:43.090Z,29.90
2018-12-11T13:26:12.162Z,25.97
2018-12-11T13:28:41.239Z,46.37
2018-12-11T13:31:10.286Z,92.43
2018-12-11T13:33:39.350Z,68.37
2018-12-11T13:36:08.460Z,61.07
2018-12-11T13:38:37.514Z,37.50
2018-12-11T13:41:06.573Z,44.33
2018-12-11T13:43:35.866Z,57.93
2018-12-11T13:46:10.618Z,40.83
2018-12-11T13:48:39.694Z,26.10
2018-12-11T13:51:08.740Z,21.00
2018-12-11T13:53:37.792Z,28.07
2018-12-11T13:56:06.912Z,30.67
2018-12-11T13:58:35.979Z,39.47
2018-12-11T14:01:05.039Z,47.77
2018-12-11T14:03:34.125Z,96.17
2018-12-11T14:06:05.172Z,93.00
2018-12-11T14:08:34.221Z,72.93
2018-12-11T14:11:03.306Z,110.40
2018-12-11T14:13:32.363Z,91.03
2018-12-11T14:16:01.425Z,87.53
2018-12-11T14:18:30.515Z,79.73
2018-12-11T14:20:59.573Z,94.23
2018-12-11T14:23:28.636Z,51.37
2018-12-11T14:26:21.311Z,38.30
2018-12-11T14:28:50.366Z,53.23
2018-12-11T14:31:19.427Z,68.87
2018-12-11T14:33:48.618Z,56.27
2018-12-11T14:36:17.665Z,46.60
2018-12-11T14:38:46.739Z,51.50
2018-12-11T14:41:15.909Z,48.43
2018-12-11T14:43:44.944Z,47.50
2018-12-11T14:46:14.011Z,34.93
2018-12-11T14:48:43.104Z,26.30
2018-12-11T14:51:12.161Z,32.17
2018-12-11T14:53:41.218Z,44.17
2018-12-11T14:56:10.311Z,46.57
2018-12-11T14:58:39.387Z,137.83
2018-12-11T15:01:08.449Z,125.30
2018-12-11T15:03:37.539Z,139.33
2018-12-11T15:06:06.615Z,271.13
2018-12-11T15:08:35.673Z,194.30
2018-12-11T15:11:04.763Z,146.90
2018-12-11T15:13:33.829Z,515.90
2018-12-11T15:16:04.952Z,175.27
2018-12-11T15:18:34.004Z,182.00
2018-12-11T15:21:03.080Z,175.67
2018-12-11T15:23:32.180Z,156.07
2018-12-11T15:26:01.246Z,77.50
2018-12-11T15:28:30.303Z,48.93
2018-12-11T15:31:08.131Z,31.17
2018-12-11T15:33:37.196Z,34.80
2018-12-11T15:36:10.982Z,32.60
2018-12-11T15:38:40.029Z,69.30
2018-12-11T15:41:09.087Z,93.60
2018-12-11T15:43:38.191Z,136.23
2018-12-11T15:46:07.263Z,125.70
2018-12-11T15:48:36.338Z,91.37
2018-12-11T15:51:05.444Z,76.97
2018-12-11T15:53:34.512Z,98.30
2018-12-11T15:56:03.574Z,121.23
2018-12-11T15:58:32.687Z,225.10
2018-12-11T16:01:01.739Z,221.83
2018-12-11T16:03:30.812Z,118.17
2018-12-11T16:05:59.941Z,148.23
2018-12-11T16:08:29.009Z,164.43
2018-12-11T16:10:58.069Z,156.17
2018-12-11T16:13:27.195Z,166.53
2018-12-11T16:15:56.265Z,200.37
2018-12-11T16:18:25.335Z,164.67
2018-12-11T16:20:54.436Z,147.53
2018-12-11T16:23:23.512Z,210.80
2018-12-11T16:25:58.251Z,168.03
2018-12-11T16:28:27.315Z,183.83
2018-12-11T16:30:56.375Z,178.83
2018-12-11T16:33:25.475Z,172.40
2018-12-11T16:35:54.533Z,137.97
2018-12-11T16:38:23.596Z,155.03
2018-12-11T16:40:52.690Z,181.63
2018-12-11T16:43:21.754Z,304.73
2018-12-11T16:46:01.921Z,191.17
2018-12-11T16:48:30.976Z,99.47
2018-12-11T16:51:00.050Z,432.37
2018-12-11T16:53:29.157Z,318.63
2018-12-11T16:55:58.227Z,325.23
2018-12-11T16:58:27.300Z,306.47
2018-12-11T17:00:56.387Z,331.13
2018-12-11T17:03:25.459Z,450.20
2018-12-11T17:05:56.560Z,148.50
2018-12-11T17:08:25.652Z,75.27
2018-12-11T17:10:54.721Z,65.80
2018-12-11T17:13:23.770Z,141.37
2018-12-11T17:16:09.503Z,307.77
2018-12-11T17:18:38.573Z,602.87
2018-12-11T17:21:07.644Z,211.57
2018-12-11T17:23:36.729Z,182.13
2018-12-11T17:26:05.787Z,34.47
2018-12-11T17:28:34.855Z,30.50
2018-12-11T17:31:03.945Z,31.23
2018-12-11T17:33:32.998Z,20.13
2018-12-11T17:36:02.071Z,20.70
2018-12-11T17:38:31.365Z,15.27
2018-12-11T17:41:00.420Z,17.87
2018-12-11T17:43:29.476Z,30.57
2018-12-11T17:45:58.559Z,46.03
2018-12-11T17:48:27.605Z,78.27
2018-12-11T17:50:56.665Z,70.13
2018-12-11T17:53:25.744Z,71.70
2018-12-11T17:55:54.810Z,123.43
2018-12-11T17:58:23.873Z,152.40
2018-12-11T18:00:52.997Z,245.77
2018-12-11T18:03:22.069Z,289.40
2018-12-11T18:05:51.127Z,282.43
2018-12-11T18:08:20.225Z,317.47
2018-12-11T18:10:49.295Z,209.40
2018-12-11T18:13:18.381Z,231.17
2018-12-11T18:15:47.465Z,247.43
2018-12-11T18:18:16.542Z,249.97
2018-12-11T18:20:45.622Z,210.17
2018-12-11T18:23:14.747Z,386.90
2018-12-11T18:25:46.974Z,250.70
2018-12-11T18:28:16.075Z,200.00
2018-12-11T18:30:45.130Z,133.57
2018-12-11T18:33:14.178Z,67.23
2018-12-11T18:35:47.565Z,78.67
2018-12-11T18:38:16.629Z,115.37
2018-12-11T18:40:45.704Z,120.57
2018-12-11T18:43:14.825Z,90.70
2018-12-11T18:45:43.866Z,54.90
2018-12-11T18:48:12.926Z,73.10
2018-12-11T18:50:42.015Z,109.63
2018-12-11T18:53:11.073Z,91.03
2018-12-11T18:55:50.027Z,73.37
2018-12-11T18:58:19.089Z,157.90
2018-12-11T19:00:48.143Z,122.57
2018-12-11T19:03:17.258Z,117.27
2018-12-11T19:05:46.330Z,121.07
2018-12-11T19:08:15.390Z,145.63
2018-12-11T19:10:44.486Z,175.77
2018-12-11T19:13:13.547Z,144.10
2018-12-11T19:15:59.383Z,202.40
2018-12-11T19:18:28.455Z,228.13
2018-12-11T19:20:57.528Z,190.43
2018-12-11T19:23:26.647Z,192.70
2018-12-11T19:25:55.715Z,156.90
2018-12-11T19:28:24.815Z,145.17
2018-12-11T19:30:53.931Z,160.50
2018-12-11T19:33:23.001Z,130.50
2018-12-11T19:35:52.072Z,142.83
2018-12-11T19:38:21.169Z,155.93
2018-12-11T19:40:50.250Z,147.50
2018-12-11T19:43:19.318Z,145.13
2018-12-11T19:45:48.471Z,133.50
2018-12-11T19:48:17.547Z,155.53
2018-12-11T19:50:46.609Z,166.97
2018-12-11T19:53:15.713Z,168.63
2018-12-11T19:56:03.820Z,171.10
2018-12-11T19:58:32.915Z,202.90
2018-12-11T20:01:01.983Z,207.03
2018-12-11T20:03:31.050Z,256.23
2018-12-11T20:06:06.689Z,222.53
2018-12-11T20:08:35.758Z,202.77
2018-12-11T20:11:04.845Z,178.03
2018-12-11T20:13:33.932Z,155.73
2018-12-11T20:16:03.003Z,125.20
2018-12-11T20:18:32.069Z,100.47
2018-12-11T20:21:01.182Z,74.03
2018-12-11T20:23:30.248Z,54.03
2018-12-11T20:25:59.312Z,62.73
2018-12-11T20:28:28.439Z,96.97
2018-12-11T20:30:57.494Z,71.17
2018-12-11T20:33:26.714Z,78.50
2018-12-11T20:35:55.809Z,113.80
2018-12-11T20:38:24.878Z,230.43
2018-12-11T20:40:54.016Z,214.60
2018-12-11T20:43:23.417Z,165.10
2018-12-11T20:45:52.497Z,130.13
2018-12-11T20:48:21.574Z,142.23
2018-12-11T20:50:50.911Z,124.00
2018-12-11T20:53:19.979Z,136.67
2018-12-11T20:55:49.061Z,143.30
2018-12-11T20:58:18.148Z,163.00
2018-12-11T21:00:47.204Z,126.87
2018-12-11T21:03:16.285Z,158.47
2018-12-11T21:06:08.216Z,151.47
2018-12-11T21:08:37.285Z,117.40
2018-12-11T21:11:06.391Z,43.90
2018-12-11T21:13:35.443Z,57.93
2018-12-11T21:16:04.513Z,60.90
2018-12-11T21:18:33.602Z,60.37
2018-12-11T21:21:02.662Z,40.07
2018-12-11T21:23:31.725Z,41.73
2018-12-11T21:26:00.819Z,43.47
2018-12-11T21:28:29.885Z,49.83
2018-12-11T21:30:58.944Z,43.53
2018-12-11T21:33:28.028Z,41.73
2018-12-11T21:36:01.777Z,23.47
2018-12-11T21:38:30.886Z,31.03
2018-12-11T21:40:59.946Z,48.53
2018-12-11T21:43:29.002Z,21.00
2018-12-11T21:45:58.118Z,14.63
2018-12-11T21:48:27.182Z,16.57
2018-12-11T21:50:56.252Z,14.33
2018-12-11T21:53:25.350Z,15.13
2018-12-11T21:58:51.901Z,18.07
2018-12-11T22:01:20.959Z,28.20
2018-12-11T22:03:50.013Z,33.13
2018-12-11T22:06:19.301Z,22.70
2018-12-11T22:08:48.359Z,28.83
2018-12-11T22:11:17.579Z,17.50
2018-12-11T22:13:46.664Z,23.40
2018-12-11T22:16:15.731Z,19.43
2018-12-11T22:18:44.811Z,40.80
2018-12-11T22:21:13.906Z,38.10
2018-12-11T22:23:42.966Z,19.10
2018-12-11T22:26:12.032Z,20.63
2018-12-11T22:28:41.186Z,24.67
2018-12-11T22:31:10.244Z,31.37
2018-12-11T22:33:39.420Z,33.00
2018-12-11T22:36:08.501Z,32.20
2018-12-11T22:38:37.565Z,29.27
2018-12-11T22:41:06.629Z,25.83
2018-12-11T22:43:35.713Z,24.43
2018-12-11T22:46:04.780Z,18.93
2018-12-11T22:48:33.840Z,24.73
2018-12-11T22:51:03.224Z,31.43
2018-12-11T22:53:32.284Z,32.40
2018-12-11T22:56:01.340Z,28.63
2018-12-11T22:58:30.426Z,35.83
2018-12-11T23:00:59.475Z,32.57
2018-12-11T23:03:28.528Z,34.43
2018-12-11T23:05:57.611Z,28.57
2018-12-11T23:08:26.687Z,28.00
2018-12-11T23:10:55.749Z,33.33
2018-12-11T23:13:24.868Z,37.67
2018-12-11T23:15:57.427Z,35.37
2018-12-11T23:18:26.501Z,35.00
2018-12-11T23:20:55.561Z,27.63
2018-12-11T23:23:24.631Z,31.07
2018-12-11T23:25:53.712Z,38.03
2018-12-11T23:28:22.769Z,39.27
2018-12-11T23:30:51.816Z,37.50
2018-12-11T23:33:20.921Z,50.27
2018-12-11T23:35:49.996Z,64.50
2018-12-11T23:38:19.057Z,66.57
2018-12-11T23:40:48.220Z,64.80
2018-12-11T23:43:17.206Z,66.37
2018-12-11T23:46:04.720Z,62.60
2018-12-11T23:48:33.785Z,57.77
2018-12-11T23:51:02.833Z,60.33
2018-12-11T23:53:31.935Z,61.57
2018-12-11T23:56:00.993Z,69.90
2018-12-11T23:58:30.045Z,70.53
